Time;durP1;ratioP1;P1;durP2;ratioP2;P2;SDS_P1;SDS_P2;PMS_P1;PMS_P2;Temp;Humidity;BMP_temperature;BMP_pressure;BME280_temperature;BME280_humidity;BME280_pressure;Samples;Min_cycle;Max_cycle;Signal;HPM_P1;HPM_P2
2022/01/15 00:00:42;;;;;;;34.53;22.57;;;4.30;99.90;;;;;;5042454;28;20289;-65
2022/01/15 00:03:15;;;;;;;30.27;21.70;;;4.30;99.90;;;;;;5045167;28;20212;-65
2022/01/15 00:05:44;;;;;;;32.87;21.77;;;4.30;99.90;;;;;;5039407;28;20776;-65
2022/01/15 00:08:14;;;;;;;37.17;23.20;;;4.30;99.90;;;;;;5034439;28;20280;-65
2022/01/15 00:10:42;;;;;;;33.27;22.57;;;4.20;99.90;;;;;;5046806;28;20205;-65
2022/01/15 00:13:20;;;;;;;35.53;23.17;;;4.20;99.90;;;;;;5046337;28;20185;-65
2022/01/15 00:16:00;;;;;;;34.27;21.40;;;4.20;99.90;;;;;;5046129;28;20690;-65
2022/01/15 00:18:41;;;;;;;32.30;22.10;;;4.20;99.90;;;;;;5038355;28;20197;-65
2022/01/15 00:21:10;;;;;;;36.57;22.40;;;4.20;99.90;;;;;;5047585;28;20360;-65
2022/01/15 00:23:40;;;;;;;35.57;22.10;;;4.20;99.90;;;;;;5039308;28;20229;-65
2022/01/15 00:26:08;;;;;;;31.30;21.40;;;4.20;99.90;;;;;;5043006;28;20288;-65
2022/01/15 00:28:37;;;;;;;33.20;22.67;;;4.20;99.90;;;;;;5045687;28;20291;-65
2022/01/15 00:31:05;;;;;;;35.10;23.77;;;4.20;99.90;;;;;;5048640;28;20458;-65
2022/01/15 00:33:34;;;;;;;35.77;22.73;;;4.20;99.90;;;;;;5046361;28;20322;-65
2022/01/15 00:36:03;;;;;;;38.57;23.07;;;4.20;99.90;;;;;;5046785;28;20262;-65
2022/01/15 00:38:31;;;;;;;38.37;23.53;;;4.20;99.90;;;;;;5041068;28;20201;-65
2022/01/15 00:41:01;;;;;;;32.97;22.57;;;4.20;99.90;;;;;;5049365;28;20231;-65
2022/01/15 00:43:30;;;;;;;33.03;21.83;;;4.20;99.90;;;;;;5059351;28;20296;-65
2022/01/15 00:45:59;;;;;;;31.10;21.87;;;4.20;99.90;;;;;;5038455;28;20300;-65
2022/01/15 00:48:29;;;;;;;32.10;22.13;;;4.20;99.90;;;;;;5048516;28;20189;-65
2022/01/15 00:50:58;;;;;;;35.93;22.87;;;4.20;99.90;;;;;;5046699;28;20277;-65
2022/01/15 00:53:26;;;;;;;35.70;22.80;;;4.20;99.90;;;;;;5028259;28;20289;-65
2022/01/15 00:55:55;;;;;;;34.30;23.13;;;4.10;99.90;;;;;;5045327;28;20227;-65
2022/01/15 00:58:24;;;;;;;36.77;23.53;;;4.10;99.90;;;;;;5046738;28;20208;-65
2022/01/15 01:00:53;;;;;;;33.13;22.43;;;4.10;99.90;;;;;;5043437;28;20269;-65
2022/01/15 01:03:59;;;;;;;38.93;24.07;;;4.10;99.90;;;;;;5044326;28;20207;-65
2022/01/15 01:07:08;;;;;;;33.43;22.60;;;4.10;99.90;;;;;;5046271;28;20625;-65
2022/01/15 01:09:52;;;;;;;31.27;21.97;;;4.10;99.90;;;;;;5042225;28;20305;-65
2022/01/15 01:12:29;;;;;;;32.67;21.53;;;4.10;99.90;;;;;;5036408;28;20247;-65
2022/01/15 01:20:45;;;;;;;32.27;20.17;;;4.20;99.90;;;;;;5042226;28;20224;-65
2022/01/15 01:23:13;;;;;;;29.47;20.20;;;4.20;99.90;;;;;;5042283;28;20212;-65
2022/01/15 01:25:45;;;;;;;32.80;20.43;;;4.20;99.90;;;;;;5044552;28;20289;-65
2022/01/15 01:28:20;;;;;;;29.93;20.43;;;4.20;99.90;;;;;;5044047;28;20296;-65
2022/01/15 01:30:56;;;;;;;29.67;20.50;;;4.20;99.90;;;;;;5035231;28;20888;-65
2022/01/15 01:33:33;;;;;;;28.30;20.63;;;4.10;99.90;;;;;;5045439;28;20219;-65
2022/01/15 01:36:15;;;;;;;28.87;20.20;;;4.10;99.90;;;;;;5045145;28;20280;-65
2022/01/15 01:38:51;;;;;;;28.70;21.07;;;4.10;99.90;;;;;;5052174;28;20684;-65
2022/01/15 01:41:22;;;;;;;27.40;19.67;;;4.10;99.90;;;;;;5055357;28;20195;-65
2022/01/15 01:43:55;;;;;;;33.37;20.80;;;4.10;99.90;;;;;;5045718;28;20286;-65
2022/01/15 01:46:41;;;;;;;29.50;20.47;;;4.00;99.90;;;;;;5038457;28;20567;-65
2022/01/15 01:49:14;;;;;;;29.50;20.47;;;4.10;99.90;;;;;;5048679;28;20330;-65
2022/01/15 01:51:44;;;;;;;30.13;20.80;;;4.10;99.90;;;;;;5046766;28;20256;-65
2022/01/15 01:54:16;;;;;;;30.33;20.93;;;4.10;99.90;;;;;;5054512;28;20231;-65
2022/01/15 01:56:47;;;;;;;31.30;20.47;;;4.00;99.90;;;;;;5049274;28;20694;-65
2022/01/15 01:59:16;;;;;;;31.83;20.50;;;4.10;99.90;;;;;;5049244;28;20232;-65
2022/01/15 02:01:46;;;;;;;39.13;23.13;;;4.00;99.90;;;;;;5080945;28;20201;-65
2022/01/15 02:04:16;;;;;;;36.00;22.57;;;4.00;99.90;;;;;;5044103;28;20217;-65
2022/01/15 02:06:44;;;;;;;33.57;21.77;;;4.00;99.90;;;;;;5041833;28;20276;-65
2022/01/15 02:09:13;;;;;;;34.60;22.17;;;4.00;99.90;;;;;;5052417;28;20197;-65
2022/01/15 02:11:42;;;;;;;32.17;22.10;;;4.00;99.90;;;;;;5061339;28;20212;-65
2022/01/15 02:14:24;;;;;;;33.43;22.17;;;3.90;99.90;;;;;;5050579;28;20240;-65
2022/01/15 02:16:54;;;;;;;33.23;22.13;;;3.90;99.90;;;;;;5050389;28;20185;-65
2022/01/15 02:19:22;;;;;;;33.53;22.07;;;3.90;99.90;;;;;;5051686;28;20284;-65
2022/01/15 02:24:38;;;;;;;31.80;21.13;;;3.90;99.90;;;;;;5049439;28;20305;-65
2022/01/15 02:27:07;;;;;;;33.43;22.03;;;3.90;99.90;;;;;;5051281;28;20204;-65
2022/01/15 02:29:35;;;;;;;34.03;22.03;;;3.90;99.90;;;;;;5050600;28;20253;-65
2022/01/15 02:32:05;;;;;;;34.53;22.40;;;3.90;99.90;;;;;;5048102;28;20240;-65
2022/01/15 02:34:34;;;;;;;31.53;21.33;;;3.90;99.90;;;;;;5044673;28;20244;-65
2022/01/15 02:37:04;;;;;;;38.80;22.47;;;3.90;99.90;;;;;;5046381;28;20192;-65
2022/01/15 02:39:36;;;;;;;35.87;21.97;;;3.80;99.90;;;;;;5045461;28;20662;-65
2022/01/15 02:42:04;;;;;;;33.07;21.67;;;3.80;99.90;;;;;;5049369;28;20208;-64
2022/01/15 02:44:37;;;;;;;31.33;21.80;;;3.80;99.90;;;;;;5045482;28;20302;-65
2022/01/15 02:49:53;;;;;;;31.13;22.10;;;3.90;99.90;;;;;;5046733;28;20227;-65
2022/01/15 02:52:22;;;;;;;35.47;23.07;;;3.90;99.90;;;;;;5046439;28;20283;-65
2022/01/15 02:54:51;;;;;;;32.80;20.97;;;3.80;99.90;;;;;;5048639;28;20850;-65
2022/01/15 02:57:19;;;;;;;32.77;22.07;;;3.80;99.90;;;;;;5045406;28;20280;-65
2022/01/15 02:59:47;;;;;;;32.17;22.03;;;3.90;99.90;;;;;;5048639;28;20254;-65
2022/01/15 03:02:15;;;;;;;32.60;21.73;;;3.90;99.90;;;;;;5048210;28;20192;-65
2022/01/15 03:04:44;;;;;;;34.63;22.13;;;3.80;99.90;;;;;;5045321;28;20910;-65
2022/01/15 03:07:12;;;;;;;33.20;22.23;;;3.80;99.90;;;;;;5045097;28;20205;-65
2022/01/15 03:09:42;;;;;;;33.33;21.93;;;3.90;99.90;;;;;;5046762;28;20279;-65
2022/01/15 03:12:10;;;;;;;32.37;21.20;;;3.80;99.90;;;;;;5048377;28;20279;-65
2022/01/15 03:14:39;;;;;;;33.43;21.43;;;3.80;99.90;;;;;;5045326;28;20664;-65
2022/01/15 03:17:08;;;;;;;33.73;21.50;;;3.80;99.90;;;;;;5048506;28;20239;-65
2022/01/15 03:19:42;;;;;;;31.03;21.50;;;3.80;99.90;;;;;;5042919;28;20284;-65
2022/01/15 03:22:10;;;;;;;33.83;21.77;;;3.90;99.90;;;;;;5045353;28;20243;-65
2022/01/15 03:24:39;;;;;;;32.37;21.93;;;3.90;99.90;;;;;;5045590;28;20622;-65
2022/01/15 03:27:09;;;;;;;31.57;21.90;;;3.80;99.90;;;;;;5047010;28;20557;-65
2022/01/15 03:29:37;;;;;;;31.93;22.67;;;3.80;99.90;;;;;;5047774;28;20201;-65
2022/01/15 03:32:06;;;;;;;35.73;22.63;;;3.80;99.90;;;;;;5048594;28;20205;-65
2022/01/15 03:34:35;;;;;;;30.30;20.93;;;3.70;99.90;;;;;;5045204;28;20189;-65
2022/01/15 03:37:04;;;;;;;36.43;22.73;;;3.70;99.90;;;;;;5047617;28;20207;-65
2022/01/15 03:39:33;;;;;;;32.73;22.53;;;3.80;99.90;;;;;;5046177;28;20279;-65
2022/01/15 03:42:02;;;;;;;32.47;21.37;;;3.80;99.90;;;;;;5047715;28;20275;-65
2022/01/15 03:44:32;;;;;;;34.27;22.63;;;3.70;99.90;;;;;;5043056;28;20262;-65
2022/01/15 03:47:00;;;;;;;33.40;22.57;;;3.80;99.90;;;;;;5046694;28;20197;-65
2022/01/15 03:49:28;;;;;;;33.50;22.07;;;3.70;99.90;;;;;;5044122;28;20236;-65
2022/01/15 03:51:57;;;;;;;34.40;20.90;;;3.70;99.90;;;;;;5046009;28;20750;-65
2022/01/15 03:54:25;;;;;;;34.70;22.57;;;3.60;99.90;;;;;;5046064;28;20287;-65
2022/01/15 03:56:53;;;;;;;32.00;21.97;;;3.60;99.90;;;;;;5046104;28;20664;-65
2022/01/15 03:59:22;;;;;;;34.43;23.57;;;3.60;99.90;;;;;;5044250;28;21089;-65
2022/01/15 04:01:52;;;;;;;38.50;23.50;;;3.60;99.90;;;;;;5036876;28;20304;-65
2022/01/15 04:04:21;;;;;;;40.47;24.43;;;3.50;99.90;;;;;;5044821;28;20216;-65
2022/01/15 04:06:50;;;;;;;36.33;23.17;;;3.50;99.90;;;;;;5044728;28;20228;-65
2022/01/15 04:09:18;;;;;;;35.77;23.43;;;3.60;99.90;;;;;;5044076;28;20197;-65
2022/01/15 04:11:47;;;;;;;36.93;23.70;;;3.50;99.90;;;;;;5046941;28;20284;-65
2022/01/15 04:14:15;;;;;;;36.77;22.97;;;3.50;99.90;;;;;;5047724;28;20238;-65
2022/01/15 04:16:44;;;;;;;37.40;24.00;;;3.50;99.90;;;;;;5044905;28;20287;-65
2022/01/15 04:19:14;;;;;;;39.80;25.13;;;3.50;99.90;;;;;;5043634;28;20207;-65
2022/01/15 04:21:43;;;;;;;34.27;22.70;;;3.50;99.90;;;;;;5047487;28;20235;-65
2022/01/15 04:24:11;;;;;;;37.87;24.13;;;3.50;99.90;;;;;;5046361;28;20287;-65
2022/01/15 04:26:39;;;;;;;40.80;24.70;;;3.50;99.90;;;;;;5047820;28;20235;-65
2022/01/15 04:29:08;;;;;;;39.60;24.23;;;3.40;99.90;;;;;;5045474;28;20205;-65
2022/01/15 04:31:46;;;;;;;37.60;24.83;;;3.40;99.90;;;;;;5037565;28;20224;-65
2022/01/15 04:34:19;;;;;;;36.97;24.40;;;3.50;99.90;;;;;;5038524;28;20315;-65
2022/01/15 04:36:47;;;;;;;39.10;25.00;;;3.50;99.90;;;;;;5044342;28;20612;-65
2022/01/15 04:39:17;;;;;;;43.03;24.83;;;3.50;99.90;;;;;;5043250;28;20287;-65
2022/01/15 04:41:45;;;;;;;40.60;26.07;;;3.40;99.90;;;;;;5044867;28;21042;-65
2022/01/15 04:44:13;;;;;;;38.50;25.13;;;3.40;99.90;;;;;;5044654;28;20899;-65
2022/01/15 04:46:42;;;;;;;36.73;24.80;;;3.40;99.90;;;;;;5046042;28;20571;-65
2022/01/15 04:49:11;;;;;;;35.23;24.50;;;3.50;99.90;;;;;;5048247;28;20216;-65
2022/01/15 04:51:40;;;;;;;39.20;25.97;;;3.40;99.90;;;;;;5045415;28;20207;-65
2022/01/15 04:54:09;;;;;;;40.93;25.63;;;3.40;99.90;;;;;;5045026;28;20250;-65
2022/01/15 04:56:37;;;;;;;42.20;26.87;;;3.40;99.90;;;;;;5047439;28;20216;-65
2022/01/15 04:59:06;;;;;;;41.70;25.37;;;3.40;99.90;;;;;;5048395;28;20197;-65
2022/01/15 05:01:34;;;;;;;41.70;26.23;;;3.40;99.90;;;;;;5047599;28;20279;-64
2022/01/15 05:04:03;;;;;;;45.13;27.07;;;3.40;99.90;;;;;;5029943;28;20201;-65
2022/01/15 05:06:31;;;;;;;42.10;26.07;;;3.40;99.90;;;;;;5048800;28;20300;-65
2022/01/15 05:09:05;;;;;;;44.03;26.23;;;3.30;99.90;;;;;;5047503;28;20635;-65
2022/01/15 05:11:45;;;;;;;41.43;25.10;;;3.30;99.90;;;;;;5044363;28;20670;-65
2022/01/15 05:14:15;;;;;;;42.73;26.03;;;3.30;99.90;;;;;;5048426;28;20712;-65
2022/01/15 05:16:44;;;;;;;46.90;27.37;;;3.30;99.90;;;;;;5048952;28;20211;-65
2022/01/15 05:19:12;;;;;;;42.50;26.30;;;3.20;99.90;;;;;;5047447;28;20586;-65
2022/01/15 05:21:41;;;;;;;52.63;29.63;;;3.20;99.90;;;;;;5043201;28;20694;-65
2022/01/15 05:24:11;;;;;;;49.40;28.40;;;3.20;99.90;;;;;;5045144;28;20431;-65
2022/01/15 05:26:39;;;;;;;48.33;29.07;;;3.10;99.90;;;;;;5045521;28;20298;-65
2022/01/15 05:29:08;;;;;;;48.43;27.07;;;3.10;99.90;;;;;;5040734;28;20228;-64
2022/01/15 05:31:36;;;;;;;49.70;28.27;;;3.10;99.90;;;;;;5040895;28;20200;-65
2022/01/15 05:34:05;;;;;;;47.93;26.97;;;3.10;99.90;;;;;;5046314;28;20224;-65
2022/01/15 05:36:35;;;;;;;46.93;28.20;;;3.20;99.90;;;;;;5043028;28;20253;-65
2022/01/15 05:39:04;;;;;;;46.57;28.17;;;3.10;99.90;;;;;;5043242;28;20227;-65
2022/01/15 05:41:34;;;;;;;52.47;29.17;;;3.10;99.90;;;;;;5047033;28;20205;-65
2022/01/15 05:44:03;;;;;;;47.87;28.57;;;3.10;99.90;;;;;;5045424;28;20227;-65
2022/01/15 05:46:33;;;;;;;54.87;30.20;;;3.10;99.90;;;;;;5041539;28;20287;-65
2022/01/15 05:49:03;;;;;;;48.90;28.07;;;3.10;99.90;;;;;;5044720;28;20228;-65
2022/01/15 05:51:31;;;;;;;54.60;29.90;;;3.10;99.90;;;;;;5027177;28;20203;-65
2022/01/15 05:54:00;;;;;;;53.90;29.27;;;3.20;99.90;;;;;;5042839;28;20207;-65
2022/01/15 05:56:29;;;;;;;52.00;28.70;;;3.10;99.90;;;;;;5048164;28;20189;-65
2022/01/15 05:58:59;;;;;;;54.17;29.73;;;3.10;99.90;;;;;;5064928;28;20265;-65
2022/01/15 06:01:27;;;;;;;50.83;28.40;;;3.20;99.90;;;;;;5043878;28;20322;-65
2022/01/15 06:04:33;;;;;;;57.27;29.80;;;3.20;99.90;;;;;;5044570;28;20223;-65
2022/01/15 06:07:40;;;;;;;55.93;28.43;;;3.10;99.90;;;;;;5043701;28;20204;-65
2022/01/15 06:10:10;;;;;;;55.50;27.87;;;3.00;99.90;;;;;;5027602;28;20238;-65
2022/01/15 06:12:43;;;;;;;55.87;28.40;;;3.00;99.90;;;;;;5043692;28;20243;-65
2022/01/15 06:15:14;;;;;;;55.87;27.57;;;3.00;99.90;;;;;;5041456;28;20560;-65
2022/01/15 06:17:43;;;;;;;54.93;27.97;;;3.00;99.90;;;;;;5048138;28;20201;-65
2022/01/15 06:20:13;;;;;;;56.00;28.53;;;2.90;99.90;;;;;;5042954;28;20682;-65
2022/01/15 06:22:42;;;;;;;57.87;27.63;;;2.90;99.90;;;;;;5044848;28;20256;-65
2022/01/15 06:25:11;;;;;;;55.60;28.50;;;2.90;99.90;;;;;;5039520;28;20304;-65
2022/01/15 06:27:39;;;;;;;56.77;28.77;;;2.90;99.90;;;;;;5046165;28;20189;-65
2022/01/15 06:30:08;;;;;;;57.23;28.70;;;2.90;99.90;;;;;;5044998;28;20224;-65
2022/01/15 06:32:38;;;;;;;58.87;30.17;;;2.90;99.90;;;;;;5044984;28;20229;-65
2022/01/15 06:35:08;;;;;;;53.20;27.80;;;2.90;99.90;;;;;;5045645;28;20283;-65
2022/01/15 06:37:37;;;;;;;58.67;29.40;;;2.80;99.90;;;;;;5052840;28;20269;-65
2022/01/15 06:40:07;;;;;;;56.53;27.10;;;2.80;99.90;;;;;;5054289;28;20228;-65
2022/01/15 06:42:36;;;;;;;57.27;29.20;;;2.80;99.90;;;;;;5045481;28;20220;-65
2022/01/15 06:45:05;;;;;;;53.20;27.87;;;2.80;99.90;;;;;;5053779;28;20192;-65
2022/01/15 06:47:34;;;;;;;62.27;29.47;;;2.80;99.90;;;;;;5046711;28;20711;-65
2022/01/15 06:50:05;;;;;;;60.03;28.73;;;2.80;99.90;;;;;;5050492;28;20197;-64
2022/01/15 06:52:34;;;;;;;59.00;27.57;;;2.80;99.90;;;;;;5048509;28;20698;-65
2022/01/15 06:55:04;;;;;;;60.33;28.53;;;2.80;99.90;;;;;;5047071;28;20193;-65
2022/01/15 06:57:32;;;;;;;57.23;27.87;;;2.80;99.90;;;;;;5047119;28;20662;-65
2022/01/15 07:00:01;;;;;;;58.63;28.80;;;2.70;99.90;;;;;;5047279;28;20295;-65
2022/01/15 07:02:31;;;;;;;54.63;27.13;;;2.70;99.90;;;;;;5048500;28;20547;-65
2022/01/15 07:04:59;;;;;;;54.77;26.43;;;2.70;99.90;;;;;;5049360;28;20208;-65
2022/01/15 07:07:29;;;;;;;63.27;29.27;;;2.70;99.90;;;;;;5048371;28;20668;-65
2022/01/15 07:09:57;;;;;;;53.97;26.10;;;2.70;99.90;;;;;;5046710;28;20566;-64
2022/01/15 07:12:25;;;;;;;58.43;28.90;;;2.60;99.90;;;;;;5046173;28;20212;-65
2022/01/15 07:14:54;;;;;;;60.93;26.97;;;2.60;99.90;;;;;;5050879;28;20319;-65
2022/01/15 07:17:22;;;;;;;57.30;27.27;;;2.50;99.90;;;;;;5043442;28;20201;-65
2022/01/15 07:19:51;;;;;;;56.87;27.33;;;2.50;99.90;;;;;;5049363;28;20224;-65
2022/01/15 07:22:19;;;;;;;57.57;27.43;;;2.50;99.90;;;;;;5042788;28;20201;-65
2022/01/15 07:24:49;;;;;;;58.73;26.93;;;2.40;99.90;;;;;;5048112;28;20308;-65
2022/01/15 07:27:17;;;;;;;62.70;27.93;;;2.40;99.90;;;;;;5046106;28;20212;-65
2022/01/15 07:29:46;;;;;;;65.37;29.20;;;2.50;99.90;;;;;;5043381;28;20197;-65
2022/01/15 07:32:14;;;;;;;67.67;29.97;;;2.50;99.90;;;;;;5038031;28;20332;-64
2022/01/15 07:34:42;;;;;;;69.23;29.47;;;2.50;99.90;;;;;;5044393;28;20402;-65
2022/01/15 07:37:10;;;;;;;66.23;29.10;;;2.50;99.90;;;;;;5047751;28;20200;-65
2022/01/15 07:39:39;;;;;;;70.63;29.33;;;2.40;99.90;;;;;;5041304;28;20279;-65
2022/01/15 07:42:10;;;;;;;68.10;28.03;;;2.40;99.90;;;;;;5046133;28;20200;-65
2022/01/15 07:44:38;;;;;;;66.63;28.90;;;2.40;99.90;;;;;;5038714;28;20232;-65
2022/01/15 07:47:08;;;;;;;67.97;28.27;;;2.50;99.90;;;;;;5045507;28;20212;-65
2022/01/15 07:49:39;;;;;;;65.80;27.90;;;2.50;99.90;;;;;;5043124;28;20284;-65
2022/01/15 07:52:07;;;;;;;71.07;29.13;;;2.50;99.90;;;;;;5047543;28;20204;-65
2022/01/15 07:54:36;;;;;;;75.87;30.07;;;2.50;99.90;;;;;;5043356;28;20602;-65
2022/01/15 07:57:05;;;;;;;70.00;28.00;;;2.50;99.90;;;;;;5047927;28;20189;-65
2022/01/15 07:59:34;;;;;;;74.93;28.80;;;2.50;99.90;;;;;;5042616;28;20225;-65
2022/01/15 08:02:03;;;;;;;68.30;28.57;;;2.50;99.90;;;;;;5052653;28;20609;-65
2022/01/15 08:04:32;;;;;;;60.07;25.20;;;2.50;99.90;;;;;;5052819;28;20197;-65
2022/01/15 08:07:00;;;;;;;72.63;28.23;;;2.40;99.90;;;;;;5053260;28;20311;-65
2022/01/15 08:09:29;;;;;;;63.43;26.83;;;2.30;99.90;;;;;;5046031;28;20738;-65
2022/01/15 08:11:57;;;;;;;66.17;26.40;;;2.30;99.90;;;;;;5054356;28;20568;-65
2022/01/15 08:14:25;;;;;;;72.97;28.70;;;2.30;99.90;;;;;;5052441;28;20201;-65
2022/01/15 08:16:55;;;;;;;67.83;26.00;;;2.30;99.90;;;;;;5052318;28;20185;-65
2022/01/15 08:19:24;;;;;;;66.67;25.00;;;2.40;99.90;;;;;;5041569;28;20205;-65
2022/01/15 08:21:53;;;;;;;71.27;26.83;;;2.40;99.90;;;;;;5045200;28;20203;-65
2022/01/15 08:24:21;;;;;;;70.77;26.83;;;2.40;99.90;;;;;;5047503;28;20644;-65
2022/01/15 08:26:51;;;;;;;69.27;26.23;;;2.40;99.90;;;;;;5043170;28;20256;-65
2022/01/15 08:29:20;;;;;;;68.13;27.03;;;2.30;99.90;;;;;;5044487;28;20279;-65
2022/01/15 08:31:48;;;;;;;73.90;26.97;;;2.40;99.90;;;;;;5048197;28;20273;-65
2022/01/15 08:34:18;;;;;;;70.27;25.37;;;2.40;99.90;;;;;;5053638;28;20300;-65
2022/01/15 08:36:46;;;;;;;69.83;27.13;;;2.40;99.90;;;;;;5044672;28;20655;-65
2022/01/15 08:39:14;;;;;;;66.57;26.27;;;2.40;99.90;;;;;;5047681;28;20314;-65
2022/01/15 08:41:47;;;;;;;68.77;26.57;;;2.40;99.90;;;;;;5049775;28;20292;-65
2022/01/15 08:44:19;;;;;;;73.60;26.50;;;2.40;99.90;;;;;;5047206;28;20659;-65
2022/01/15 08:46:47;;;;;;;65.87;25.10;;;2.40;99.90;;;;;;5044237;28;20276;-65
2022/01/15 08:49:16;;;;;;;66.53;25.70;;;2.40;99.90;;;;;;5048097;28;20330;-65
2022/01/15 08:51:46;;;;;;;71.60;26.27;;;2.40;99.90;;;;;;5036616;28;20196;-65
2022/01/15 08:54:15;;;;;;;61.37;23.63;;;2.40;99.90;;;;;;5045735;28;20211;-65
2022/01/15 08:56:43;;;;;;;61.23;24.87;;;2.50;99.90;;;;;;5048319;28;20236;-65
2022/01/15 08:59:11;;;;;;;63.93;25.00;;;2.50;99.90;;;;;;5043708;28;20834;-65
2022/01/15 09:01:40;;;;;;;63.93;24.97;;;2.50;99.90;;;;;;5044781;28;20224;-65
2022/01/15 09:04:08;;;;;;;64.13;24.83;;;2.50;99.90;;;;;;5048854;28;20257;-65
2022/01/15 09:06:39;;;;;;;56.03;24.20;;;2.60;99.90;;;;;;5038152;28;20241;-65
2022/01/15 09:09:09;;;;;;;59.73;24.43;;;2.50;99.90;;;;;;5043195;28;20236;-65
2022/01/15 09:11:37;;;;;;;57.57;23.87;;;2.50;99.90;;;;;;5043523;28;20232;-65
2022/01/15 09:14:06;;;;;;;53.30;22.23;;;2.50;99.90;;;;;;5041686;28;20197;-64
2022/01/15 09:16:34;;;;;;;48.67;21.63;;;2.50;99.90;;;;;;5039931;28;20856;-65
2022/01/15 09:19:03;;;;;;;52.30;23.00;;;2.50;99.90;;;;;;5045858;28;20188;-65
2022/01/15 09:21:32;;;;;;;55.07;23.27;;;2.50;99.90;;;;;;5054527;28;20694;-65
2022/01/15 09:24:00;;;;;;;51.70;23.47;;;2.40;99.90;;;;;;5044949;28;20250;-65
2022/01/15 09:31:59;;;;;;;54.53;23.43;;;2.40;99.90;;;;;;5046307;28;20623;-65
2022/01/15 09:34:28;;;;;;;51.77;23.33;;;2.50;99.90;;;;;;5041389;28;20200;-65
2022/01/15 09:36:56;;;;;;;50.80;21.70;;;2.50;99.90;;;;;;5046127;28;20300;-65
2022/01/15 09:39:25;;;;;;;54.70;24.50;;;2.50;99.90;;;;;;5042112;28;20201;-65
2022/01/15 09:41:55;;;;;;;49.90;22.70;;;2.50;99.90;;;;;;5039866;28;20229;-65
2022/01/15 09:44:24;;;;;;;51.47;22.43;;;2.60;99.90;;;;;;5045677;28;20629;-65
2022/01/15 09:46:53;;;;;;;47.63;22.50;;;2.60;99.90;;;;;;5047496;28;20287;-65
2022/01/15 09:49:24;;;;;;;46.27;22.33;;;2.60;99.90;;;;;;5041857;28;20262;-65
2022/01/15 09:51:52;;;;;;;42.30;20.73;;;2.70;99.90;;;;;;5040532;28;20287;-65
2022/01/15 09:54:21;;;;;;;46.77;21.90;;;2.80;99.90;;;;;;5045694;28;20676;-65
2022/01/15 09:56:49;;;;;;;42.93;20.90;;;2.70;99.90;;;;;;5044428;28;20189;-65
2022/01/15 09:59:20;;;;;;;46.50;22.30;;;2.70;99.90;;;;;;5042241;28;20204;-65
2022/01/15 10:01:49;;;;;;;41.57;21.87;;;2.60;99.90;;;;;;5033603;28;20209;-65
2022/01/15 10:04:18;;;;;;;47.53;23.07;;;2.60;99.90;;;;;;5037666;28;20207;-65
2022/01/15 10:07:08;;;;;;;48.40;23.93;;;2.60;99.90;;;;;;5043553;28;20555;-65
2022/01/15 10:09:37;;;;;;;48.67;23.67;;;2.60;99.90;;;;;;5032342;28;20252;-65
2022/01/15 10:12:07;;;;;;;47.83;24.07;;;2.50;99.90;;;;;;5044280;28;20280;-65
2022/01/15 10:14:39;;;;;;;52.67;24.67;;;2.60;99.90;;;;;;5045442;28;20190;-65
2022/01/15 10:17:21;;;;;;;45.33;21.53;;;2.60;99.90;;;;;;5039714;28;20200;-65
2022/01/15 10:19:50;;;;;;;39.77;20.77;;;2.80;99.90;;;;;;5043126;28;20200;-65
2022/01/15 10:22:21;;;;;;;35.40;19.20;;;3.00;99.90;;;;;;5037737;28;20663;-65
2022/01/15 10:24:56;;;;;;;40.90;20.30;;;3.00;99.90;;;;;;5045057;28;20250;-65
2022/01/15 10:27:28;;;;;;;38.20;21.10;;;3.00;99.90;;;;;;5051321;28;20235;-65
2022/01/15 10:30:04;;;;;;;39.20;21.37;;;2.90;99.90;;;;;;5049275;28;20224;-65
2022/01/15 10:32:35;;;;;;;38.77;21.00;;;2.90;99.90;;;;;;5049239;28;20239;-65
2022/01/15 10:35:11;;;;;;;37.03;21.17;;;2.80;99.90;;;;;;5065180;28;20221;-65
2022/01/15 10:37:52;;;;;;;37.47;20.37;;;2.90;99.90;;;;;;5044006;28;20748;-65
2022/01/15 10:40:23;;;;;;;30.93;18.93;;;3.00;99.90;;;;;;5049412;28;20289;-65
2022/01/15 10:42:56;;;;;;;27.47;16.87;;;3.30;99.90;;;;;;5052813;28;20193;-65
2022/01/15 10:45:34;;;;;;;28.13;17.30;;;3.40;99.90;;;;;;5063155;28;20274;-65
2022/01/15 10:48:08;;;;;;;28.77;18.03;;;3.40;99.90;;;;;;5044179;28;20216;-65
2022/01/15 10:50:38;;;;;;;27.20;16.67;;;3.20;99.90;;;;;;5043851;28;20749;-65
2022/01/15 10:53:08;;;;;;;30.60;18.57;;;3.10;99.90;;;;;;5049606;28;20625;-65
2022/01/15 10:55:37;;;;;;;25.43;16.83;;;3.10;99.90;;;;;;5050295;28;20201;-65
2022/01/15 10:58:08;;;;;;;29.63;18.73;;;3.10;99.90;;;;;;5046571;28;20195;-65
2022/01/15 11:00:42;;;;;;;34.07;20.17;;;3.20;99.90;;;;;;5045322;28;20856;-65
2022/01/15 11:03:12;;;;;;;24.90;17.17;;;3.50;99.90;;;;;;5038519;28;20236;-65
2022/01/15 11:05:42;;;;;;;22.97;16.37;;;3.70;99.90;;;;;;5049809;28;20193;-65
2022/01/15 11:08:14;;;;;;;25.97;17.10;;;3.70;99.90;;;;;;5051720;28;20302;-65
2022/01/15 11:10:45;;;;;;;22.17;15.97;;;3.90;99.90;;;;;;5042847;28;20255;-65
2022/01/15 11:13:15;;;;;;;20.33;14.93;;;4.30;99.90;;;;;;5045958;28;20649;-65
2022/01/15 11:15:47;;;;;;;16.90;13.77;;;4.30;99.90;;;;;;5052064;28;20590;-65
2022/01/15 11:18:19;;;;;;;18.90;14.77;;;4.30;99.90;;;;;;5048920;28;20231;-65
2022/01/15 11:20:51;;;;;;;19.93;14.70;;;4.20;99.90;;;;;;5053338;28;20839;-65
2022/01/15 11:23:22;;;;;;;18.80;15.03;;;4.20;99.90;;;;;;5044491;28;20683;-65
2022/01/15 11:25:51;;;;;;;20.00;15.77;;;4.40;99.90;;;;;;5049292;28;20680;-65
2022/01/15 11:28:22;;;;;;;28.33;23.60;;;4.60;99.90;;;;;;5049367;28;20296;-65
2022/01/15 11:30:55;;;;;;;19.00;14.20;;;4.70;99.90;;;;;;5043096;28;20228;-65
2022/01/15 11:33:30;;;;;;;18.57;16.00;;;4.70;99.90;;;;;;5048405;28;20256;-65
2022/01/15 11:35:59;;;;;;;17.70;14.30;;;4.70;99.90;;;;;;5047244;28;20246;-66
2022/01/15 11:38:45;;;;;;;18.63;14.87;;;4.70;99.90;;;;;;5046903;28;20193;-65
2022/01/15 11:41:39;;;;;;;19.50;14.80;;;4.50;99.90;;;;;;5044760;28;20275;-65
2022/01/15 11:44:10;;;;;;;20.77;15.03;;;4.30;99.90;;;;;;5030920;28;20204;-65
2022/01/15 11:46:49;;;;;;;18.77;14.53;;;4.10;99.90;;;;;;5049688;28;20258;-65
2022/01/15 11:49:32;;;;;;;22.80;16.00;;;3.90;99.90;;;;;;5045683;28;20212;-65
2022/01/15 11:52:42;;;;;;;19.27;15.43;;;4.00;99.90;;;;;;5044999;28;20193;-65
2022/01/15 11:55:14;;;;;;;14.07;12.33;;;4.30;99.90;;;;;;5026474;28;20201;-65
2022/01/15 11:57:47;;;;;;;15.57;11.80;;;4.70;99.90;;;;;;5050396;28;20193;-65
2022/01/15 12:00:22;;;;;;;15.97;12.50;;;4.90;99.90;;;;;;5045959;28;20763;-66
2022/01/15 12:03:14;;;;;;;15.07;12.70;;;4.90;99.90;;;;;;5045359;28;20567;-65
2022/01/15 12:05:46;;;;;;;15.30;13.13;;;4.90;99.90;;;;;;5047254;28;20338;-65
2022/01/15 12:08:34;;;;;;;14.27;12.67;;;4.90;99.90;;;;;;5047149;28;20199;-65
2022/01/15 12:11:06;;;;;;;16.47;13.50;;;5.00;99.90;;;;;;5046902;28;20550;-65
2022/01/15 12:13:51;;;;;;;16.33;13.40;;;4.90;99.90;;;;;;5044474;28;20200;-65
2022/01/15 12:16:37;;;;;;;16.63;13.60;;;4.80;99.90;;;;;;5044311;28;20227;-65
2022/01/15 12:19:07;;;;;;;17.57;14.63;;;4.80;99.90;;;;;;5046037;28;20184;-65
2022/01/15 12:21:56;;;;;;;16.60;13.90;;;4.70;99.90;;;;;;5043294;28;20201;-65
2022/01/15 12:24:51;;;;;;;19.33;15.03;;;4.60;99.90;;;;;;5038067;28;20217;-65
2022/01/15 12:27:20;;;;;;;15.93;12.80;;;4.60;99.90;;;;;;5033975;28;20259;-65
2022/01/15 12:29:59;;;;;;;12.60;11.30;;;4.80;99.90;;;;;;5040624;28;20220;-66
2022/01/15 12:32:29;;;;;;;18.93;17.00;;;5.00;99.90;;;;;;5042115;28;20259;-65
2022/01/15 12:35:01;;;;;;;12.83;11.33;;;5.10;99.90;;;;;;5041422;28;20295;-65
2022/01/15 12:37:30;;;;;;;12.73;11.47;;;5.20;99.90;;;;;;5047134;28;20188;-65
2022/01/15 12:40:03;;;;;;;13.10;11.80;;;5.30;99.90;;;;;;5045741;28;20189;-65
2022/01/15 12:42:33;;;;;;;12.90;11.60;;;5.50;99.90;;;;;;5043582;28;20193;-65
2022/01/15 12:45:02;;;;;;;12.40;11.17;;;5.50;99.90;;;;;;5041664;28;20193;-65
2022/01/15 12:47:43;;;;;;;12.83;11.53;;;5.50;99.90;;;;;;5042799;28;20263;-65
2022/01/15 12:50:14;;;;;;;12.70;11.13;;;5.60;99.90;;;;;;5043946;28;20252;-66
2022/01/15 12:52:42;;;;;;;12.83;11.60;;;5.80;99.90;;;;;;5043941;28;21595;-65
2022/01/15 12:55:12;;;;;;;12.20;11.00;;;5.80;99.90;;;;;;5043894;28;20200;-66
2022/01/15 12:57:43;;;;;;;14.00;11.60;;;5.90;99.90;;;;;;5040251;28;20239;-66
2022/01/15 13:00:13;;;;;;;12.33;11.03;;;6.00;99.90;;;;;;5037278;28;20193;-66
2022/01/15 13:02:42;;;;;;;12.80;11.20;;;6.10;99.90;;;;;;5042100;28;20201;-66
2022/01/15 13:05:13;;;;;;;12.40;11.10;;;6.20;99.90;;;;;;5047317;28;20272;-66
2022/01/15 13:07:53;;;;;;;11.83;10.53;;;6.20;99.90;;;;;;5038968;28;20200;-66
2022/01/15 13:10:30;;;;;;;11.80;10.63;;;6.20;99.90;;;;;;5038946;28;20693;-66
2022/01/15 13:12:59;;;;;;;12.57;11.27;;;6.20;99.90;;;;;;5042422;28;20199;-66